createdAt,value
2023-05-16T00:02:11.186Z,4.53
2023-05-16T00:04:39.092Z,4.50
2023-05-16T00:07:08.241Z,4.60
2023-05-16T00:09:38.285Z,4.13
2023-05-16T00:12:06.572Z,3.77
2023-05-16T00:14:36.374Z,4.27
2023-05-16T00:17:11.493Z,4.23
2023-05-16T00:19:40.338Z,4.57
2023-05-16T00:22:09.525Z,4.27
2023-05-16T00:24:37.354Z,4.60
2023-05-16T00:27:05.344Z,4.70
2023-05-16T00:29:33.215Z,4.63
2023-05-16T00:32:01.065Z,4.90
2023-05-16T00:34:28.848Z,4.63
2023-05-16T00:36:56.580Z,5.07
2023-05-16T00:39:26.191Z,4.10
2023-05-16T00:41:54.468Z,4.40
2023-05-16T00:44:22.204Z,4.20
2023-05-16T00:46:50.081Z,4.47
2023-05-16T00:49:18.041Z,3.90
2023-05-16T00:51:45.974Z,4.23
2023-05-16T00:54:14.696Z,4.03
2023-05-16T00:56:44.124Z,4.13
2023-05-16T00:59:12.082Z,4.40
2023-05-16T01:01:41.714Z,3.60
2023-05-16T01:04:09.608Z,4.00
2023-05-16T01:06:37.640Z,3.40
2023-05-16T01:09:05.959Z,3.40
2023-05-16T01:11:42.165Z,3.60
2023-05-16T01:14:20.913Z,3.63
2023-05-16T01:16:55.824Z,3.33
2023-05-16T01:19:48.290Z,3.73
2023-05-16T01:22:21.758Z,3.13
2023-05-16T01:25:04.008Z,3.50
2023-05-16T01:27:34.597Z,2.93
2023-05-16T01:30:02.629Z,2.93
2023-05-16T01:32:30.900Z,2.70
2023-05-16T01:34:58.984Z,2.77
2023-05-16T01:37:34.862Z,2.63
2023-05-16T01:40:10.295Z,2.80
2023-05-16T01:42:48.534Z,2.60
2023-05-16T01:45:22.085Z,3.30
2023-05-16T01:47:58.994Z,2.60
2023-05-16T01:50:30.619Z,2.70
2023-05-16T01:53:01.823Z,2.30
2023-05-16T01:55:41.343Z,2.17
2023-05-16T01:58:13.625Z,2.73
2023-05-16T02:00:42.448Z,2.77
2023-05-16T02:03:10.939Z,2.93
2023-05-16T02:05:39.221Z,2.60
2023-05-16T02:08:08.444Z,2.50
2023-05-16T02:10:36.376Z,1.93
2023-05-16T02:13:04.237Z,2.07
2023-05-16T02:15:33.316Z,2.27
2023-05-16T02:18:01.258Z,2.27
2023-05-16T02:20:29.512Z,2.30
2023-05-16T02:22:58.086Z,2.63
2023-05-16T02:25:26.577Z,2.50
2023-05-16T02:27:54.575Z,2.40
2023-05-16T02:30:22.656Z,2.40
2023-05-16T02:32:53.868Z,3.20
2023-05-16T02:35:22.610Z,2.93
2023-05-16T02:37:51.044Z,3.20
2023-05-16T02:40:18.761Z,3.40
2023-05-16T02:42:46.441Z,3.27
2023-05-16T02:45:14.265Z,3.93
2023-05-16T02:47:42.491Z,3.40
2023-05-16T02:50:12.125Z,3.67
2023-05-16T02:52:39.834Z,3.97
2023-05-16T02:57:39.110Z,3.60
2023-05-16T03:00:10.721Z,3.87
2023-05-16T03:02:38.575Z,4.50
2023-05-16T03:05:07.206Z,4.77
2023-05-16T03:07:36.265Z,4.17
2023-05-16T03:10:04.662Z,4.67
2023-05-16T03:12:32.383Z,5.13
2023-05-16T03:15:00.070Z,4.20
2023-05-16T03:17:27.895Z,4.27
2023-05-16T03:19:55.660Z,4.27
2023-05-16T03:22:23.330Z,4.07
2023-05-16T03:24:52.388Z,5.30
2023-05-16T03:27:20.105Z,6.00
2023-05-16T03:29:47.862Z,5.77
2023-05-16T03:32:15.753Z,4.90
2023-05-16T03:34:43.412Z,5.53
2023-05-16T03:37:11.513Z,4.97
2023-05-16T03:39:39.282Z,4.90
2023-05-16T03:42:08.589Z,4.30
2023-05-16T03:44:36.239Z,4.83
2023-05-16T03:47:04.040Z,4.97
2023-05-16T03:49:31.754Z,3.60
2023-05-16T03:51:59.492Z,3.63
2023-05-16T03:54:27.387Z,2.90
2023-05-16T03:56:55.040Z,2.23
2023-05-16T03:59:24.108Z,2.20
2023-05-16T04:01:52.068Z,2.87
2023-05-16T04:04:19.772Z,2.80
2023-05-16T04:06:47.506Z,3.40
2023-05-16T04:09:15.204Z,2.50
2023-05-16T04:11:43.304Z,2.87
2023-05-16T04:14:11.061Z,3.17
2023-05-16T04:16:40.230Z,3.00
2023-05-16T04:19:08.133Z,2.80
2023-05-16T04:21:36.412Z,3.43
2023-05-16T04:24:04.622Z,2.90
2023-05-16T04:26:32.380Z,2.73
2023-05-16T04:29:00.371Z,2.73
2023-05-16T04:31:28.203Z,2.77
2023-05-16T04:33:58.194Z,2.83
2023-05-16T04:36:29.114Z,3.63
2023-05-16T04:38:57.398Z,3.57
2023-05-16T04:41:25.351Z,3.80
2023-05-16T04:43:53.628Z,4.50
2023-05-16T04:46:21.964Z,4.60
2023-05-16T04:48:49.768Z,4.80
2023-05-16T04:51:18.860Z,3.77
2023-05-16T04:53:46.598Z,3.90
2023-05-16T04:56:14.468Z,3.73
2023-05-16T04:58:42.958Z,3.60
2023-05-16T05:01:10.940Z,3.47
2023-05-16T05:03:39.720Z,2.73
2023-05-16T05:06:07.673Z,2.57
2023-05-16T05:08:36.725Z,2.50
2023-05-16T05:11:04.461Z,2.80
2023-05-16T05:13:32.165Z,3.30
2023-05-16T05:16:00.058Z,2.83
2023-05-16T05:18:28.018Z,3.30
2023-05-16T05:20:55.736Z,3.00
2023-05-16T05:23:23.486Z,2.60
2023-05-16T05:25:52.603Z,2.73
2023-05-16T05:28:20.343Z,3.27
2023-05-16T05:30:48.388Z,2.77
2023-05-16T05:33:18.969Z,3.40
2023-05-16T05:35:46.699Z,3.40
2023-05-16T05:38:14.373Z,4.10
2023-05-16T05:40:42.114Z,2.50
2023-05-16T05:43:11.159Z,2.97
2023-05-16T05:45:39.047Z,2.53
2023-05-16T05:48:07.475Z,3.13
2023-05-16T05:50:35.318Z,2.50
2023-05-16T05:53:03.090Z,2.27
2023-05-16T05:55:30.881Z,2.30
2023-05-16T05:57:58.674Z,2.60
2023-05-16T06:00:28.584Z,2.60
2023-05-16T06:02:56.887Z,3.03
2023-05-16T06:05:25.884Z,3.40
2023-05-16T06:07:53.776Z,2.67
2023-05-16T06:10:21.429Z,2.57
2023-05-16T06:12:49.214Z,2.93
2023-05-16T06:15:16.965Z,2.73
2023-05-16T06:17:46.110Z,2.97
2023-05-16T06:20:14.214Z,2.80
2023-05-16T06:22:41.894Z,1.97
2023-05-16T06:25:10.364Z,2.87
2023-05-16T06:27:38.268Z,2.37
2023-05-16T06:30:07.502Z,2.30
2023-05-16T06:32:35.281Z,1.97
2023-05-16T06:35:05.003Z,3.33
2023-05-16T06:37:32.658Z,2.63
2023-05-16T06:40:00.407Z,3.20
2023-05-16T06:42:28.361Z,2.60
2023-05-16T06:44:56.255Z,2.43
2023-05-16T06:47:24.323Z,3.07
2023-05-16T06:49:52.106Z,2.67
2023-05-16T06:52:21.366Z,2.77
2023-05-16T06:54:49.770Z,2.30
2023-05-16T06:57:17.553Z,2.27
2023-05-16T06:59:45.410Z,1.80
2023-05-16T07:02:13.223Z,2.40
2023-05-16T07:04:40.974Z,2.00
2023-05-16T07:07:09.130Z,2.90
2023-05-16T07:09:38.249Z,2.00
2023-05-16T07:12:07.021Z,2.70
2023-05-16T07:14:34.760Z,3.00
2023-05-16T07:17:03.279Z,2.43
2023-05-16T07:19:31.092Z,1.90
2023-05-16T07:21:58.911Z,2.27
2023-05-16T07:24:26.868Z,2.00
2023-05-16T07:26:56.138Z,1.83
2023-05-16T07:29:23.942Z,2.13
2023-05-16T07:31:51.757Z,1.87
2023-05-16T07:34:19.709Z,2.30
2023-05-16T07:36:47.465Z,1.63
2023-05-16T07:39:15.626Z,1.57
2023-05-16T07:41:43.388Z,1.80
2023-05-16T07:44:12.603Z,2.00
2023-05-16T07:46:40.988Z,1.73
2023-05-16T07:49:09.755Z,1.90
2023-05-16T07:51:37.629Z,1.63
2023-05-16T07:54:05.519Z,1.83
2023-05-16T07:56:33.270Z,2.07
2023-05-16T07:59:01.433Z,1.80
2023-05-16T08:01:30.595Z,1.60
2023-05-16T08:03:58.488Z,1.50
2023-05-16T08:06:26.610Z,2.13
2023-05-16T08:08:54.757Z,1.50
2023-05-16T08:11:23.375Z,1.67
2023-05-16T08:13:51.484Z,1.00
2023-05-16T08:16:19.517Z,1.87
2023-05-16T08:18:48.762Z,1.57
2023-05-16T08:21:16.715Z,1.60
2023-05-16T08:23:44.579Z,1.50
2023-05-16T08:26:12.646Z,1.50
2023-05-16T08:28:40.533Z,2.13
2023-05-16T08:31:08.284Z,1.60
2023-05-16T08:33:36.102Z,1.20
2023-05-16T08:36:06.201Z,1.40
2023-05-16T08:38:34.124Z,1.10
2023-05-16T08:41:02.005Z,1.37
2023-05-16T08:43:30.792Z,0.97
2023-05-16T08:45:58.810Z,1.73
2023-05-16T08:48:29.395Z,1.50
2023-05-16T08:50:57.474Z,1.20
2023-05-16T08:53:33.546Z,1.10
2023-05-16T08:56:02.420Z,1.30
2023-05-16T08:58:30.610Z,1.47
2023-05-16T09:00:58.591Z,1.30
2023-05-16T09:03:28.881Z,1.57
2023-05-16T09:05:57.834Z,2.07
2023-05-16T09:08:27.786Z,1.40
2023-05-16T09:10:55.979Z,1.77
2023-05-16T09:13:23.724Z,1.80
2023-05-16T09:16:09.301Z,1.37
2023-05-16T09:18:37.919Z,1.10
2023-05-16T09:21:06.863Z,1.47
2023-05-16T09:23:37.400Z,1.60
2023-05-16T09:26:07.980Z,1.27
2023-05-16T09:28:38.393Z,1.53
2023-05-16T09:31:20.132Z,1.20
2023-05-16T09:33:48.171Z,1.67
2023-05-16T09:36:16.745Z,1.67
2023-05-16T09:38:46.242Z,1.13
2023-05-16T09:41:14.011Z,1.60
2023-05-16T09:43:43.648Z,0.83
2023-05-16T09:46:31.663Z,1.10
2023-05-16T09:49:19.250Z,1.73
2023-05-16T09:51:52.748Z,1.03
2023-05-16T09:54:43.145Z,1.93
2023-05-16T09:57:22.396Z,1.87
2023-05-16T09:59:55.660Z,1.60
2023-05-16T10:02:23.925Z,1.27
2023-05-16T10:04:51.737Z,1.60
2023-05-16T10:07:20.776Z,1.83
2023-05-16T10:09:52.668Z,0.80
2023-05-16T10:12:21.813Z,1.00
2023-05-16T10:14:50.413Z,1.17
2023-05-16T10:17:19.284Z,1.77
2023-05-16T10:19:47.727Z,1.40
2023-05-16T10:22:17.652Z,1.33
2023-05-16T10:24:55.509Z,1.27
2023-05-16T10:27:24.005Z,1.30
2023-05-16T10:29:54.545Z,1.50
2023-05-16T10:32:25.560Z,1.40
2023-05-16T10:34:55.608Z,1.30
2023-05-16T10:37:24.434Z,1.57
2023-05-16T10:39:54.771Z,0.73
2023-05-16T10:42:22.563Z,0.97
2023-05-16T10:45:01.867Z,1.23
2023-05-16T10:47:35.831Z,1.20
2023-05-16T10:50:03.961Z,1.50
2023-05-16T10:52:35.354Z,0.80
2023-05-16T10:55:08.457Z,1.13
2023-05-16T10:57:36.905Z,1.20
2023-05-16T11:00:22.757Z,0.83
2023-05-16T11:02:50.700Z,1.30
2023-05-16T11:05:20.234Z,1.53
2023-05-16T11:08:04.411Z,1.17
2023-05-16T11:10:33.860Z,1.60
2023-05-16T11:13:04.594Z,1.13
2023-05-16T11:15:34.814Z,1.30
2023-05-16T11:18:09.896Z,1.00
2023-05-16T11:20:38.970Z,0.90
2023-05-16T11:23:23.469Z,1.70
2023-05-16T11:25:55.383Z,1.30
2023-05-16T11:28:25.322Z,1.23
2023-05-16T11:30:56.264Z,1.07
2023-05-16T11:33:25.803Z,1.10
2023-05-16T11:36:15.079Z,1.13
2023-05-16T11:38:44.437Z,1.70
2023-05-16T11:41:15.663Z,1.30
2023-05-16T11:43:44.829Z,0.80
2023-05-16T11:46:13.778Z,1.23
2023-05-16T11:48:42.990Z,0.73
2023-05-16T11:51:11.290Z,1.30
2023-05-16T11:53:39.691Z,1.10
2023-05-16T11:56:09.839Z,1.30
2023-05-16T11:58:39.713Z,1.00
2023-05-16T12:01:08.208Z,1.07
2023-05-16T12:03:37.139Z,1.20
2023-05-16T12:06:05.920Z,1.03
2023-05-16T12:08:34.221Z,1.40
2023-05-16T12:11:01.938Z,1.23
2023-05-16T12:13:29.872Z,1.40
2023-05-16T12:15:59.409Z,1.53
2023-05-16T12:18:27.381Z,1.20
2023-05-16T12:20:55.232Z,0.93
2023-05-16T12:23:23.240Z,1.07
2023-05-16T12:25:53.057Z,1.23
2023-05-16T12:28:21.402Z,1.40
2023-05-16T12:30:49.280Z,0.97
2023-05-16T12:33:18.448Z,1.07
2023-05-16T12:35:48.041Z,0.90
2023-05-16T12:38:17.458Z,1.00
2023-05-16T12:40:45.722Z,1.20
2023-05-16T12:43:17.936Z,1.10
2023-05-16T12:45:52.606Z,1.23
2023-05-16T12:48:22.533Z,1.37
2023-05-16T12:50:50.987Z,1.60
2023-05-16T12:53:19.790Z,1.37
2023-05-16T12:55:47.657Z,1.33
2023-05-16T12:58:16.418Z,1.47
2023-05-16T13:00:44.822Z,1.33
2023-05-16T13:03:12.682Z,1.70
2023-05-16T13:05:42.258Z,1.40
2023-05-16T13:08:10.254Z,1.20
2023-05-16T13:10:37.992Z,1.80
2023-05-16T13:13:06.294Z,1.50
2023-05-16T13:15:34.049Z,1.13
2023-05-16T13:18:02.150Z,1.10
2023-05-16T13:20:30.734Z,1.00
2023-05-16T13:22:59.884Z,1.30
2023-05-16T13:25:27.896Z,1.13
2023-05-16T13:27:55.897Z,1.07
2023-05-16T13:30:24.756Z,1.17
2023-05-16T13:32:53.022Z,0.87
2023-05-16T13:35:21.720Z,0.80
2023-05-16T13:37:49.530Z,1.20
2023-05-16T13:40:18.738Z,0.87
2023-05-16T13:42:47.235Z,0.80
2023-05-16T13:45:15.211Z,0.70
2023-05-16T13:47:43.157Z,1.20
2023-05-16T13:50:12.289Z,1.03
2023-05-16T13:52:40.787Z,0.70
2023-05-16T13:55:09.492Z,1.10
2023-05-16T13:57:39.853Z,0.97
2023-05-16T14:02:43.973Z,0.87
2023-05-16T14:05:12.116Z,0.83
2023-05-16T14:07:39.911Z,0.87
2023-05-16T14:10:09.439Z,1.03
2023-05-16T14:12:38.923Z,1.10
2023-05-16T14:15:08.202Z,0.90
2023-05-16T14:17:36.161Z,0.80
2023-05-16T14:20:05.994Z,1.00
2023-05-16T14:22:33.847Z,0.90
2023-05-16T14:25:01.721Z,1.10
2023-05-16T14:27:29.601Z,0.80
2023-05-16T14:29:59.714Z,1.33
2023-05-16T14:32:27.701Z,0.93
2023-05-16T14:34:55.710Z,0.70
2023-05-16T14:37:23.558Z,1.40
2023-05-16T14:39:53.049Z,0.90
2023-05-16T14:42:21.870Z,0.87
2023-05-16T14:44:49.747Z,0.70
2023-05-16T14:47:18.978Z,0.90
2023-05-16T14:49:46.781Z,1.00
2023-05-16T14:52:15.729Z,0.70
2023-05-16T14:54:43.547Z,0.90
2023-05-16T14:57:11.469Z,0.80
2023-05-16T14:59:39.835Z,0.90
2023-05-16T15:02:08.345Z,1.07
2023-05-16T15:04:37.639Z,0.70
2023-05-16T15:07:06.014Z,0.80
2023-05-16T15:09:34.457Z,0.90
2023-05-16T15:12:02.651Z,0.97
2023-05-16T15:14:30.497Z,0.80
2023-05-16T15:16:58.841Z,0.70
2023-05-16T15:19:27.014Z,0.70
2023-05-16T15:21:56.285Z,0.70
2023-05-16T15:24:24.231Z,0.60
2023-05-16T15:26:52.245Z,0.90
2023-05-16T15:29:20.796Z,0.87
2023-05-16T15:31:48.631Z,0.80
2023-05-16T15:34:16.437Z,1.00
2023-05-16T15:36:44.237Z,0.90
2023-05-16T15:39:13.505Z,0.80
2023-05-16T15:42:01.187Z,1.10
2023-05-16T15:44:29.858Z,1.33
2023-05-16T15:46:57.699Z,0.83
2023-05-16T15:49:25.936Z,0.93
2023-05-16T15:51:54.476Z,0.83
2023-05-16T15:54:23.691Z,1.00
2023-05-16T15:56:51.728Z,0.77
2023-05-16T15:59:19.871Z,0.77
2023-05-16T16:01:47.877Z,1.23
2023-05-16T16:04:15.732Z,0.90
2023-05-16T16:06:43.844Z,1.00
2023-05-16T16:09:12.113Z,1.30
2023-05-16T16:11:41.397Z,1.10
2023-05-16T16:14:11.375Z,1.20
2023-05-16T16:16:40.517Z,1.13
2023-05-16T16:19:08.751Z,1.30
2023-05-16T16:21:36.986Z,1.40
2023-05-16T16:24:05.544Z,1.23
2023-05-16T16:26:33.396Z,1.10
2023-05-16T16:29:02.662Z,1.10
2023-05-16T16:31:30.448Z,0.93
2023-05-16T16:33:58.277Z,1.07
2023-05-16T16:36:26.238Z,1.30
2023-05-16T16:38:54.042Z,1.20
2023-05-16T16:41:21.932Z,1.20
2023-05-16T16:43:49.707Z,1.10
2023-05-16T16:46:19.928Z,1.40
2023-05-16T16:48:48.232Z,1.10
2023-05-16T16:51:16.287Z,1.37
2023-05-16T16:53:44.117Z,1.07
2023-05-16T16:56:11.902Z,1.27
2023-05-16T16:58:39.711Z,1.00
2023-05-16T17:01:09.030Z,1.50
2023-05-16T17:03:38.350Z,0.90
2023-05-16T17:06:06.580Z,0.97
2023-05-16T17:08:34.429Z,1.30
2023-05-16T17:11:07.582Z,1.03
2023-05-16T17:13:37.526Z,1.00
2023-05-16T17:16:06.358Z,1.10
2023-05-16T17:18:36.130Z,1.20
2023-05-16T17:21:20.697Z,0.83
2023-05-16T17:24:06.769Z,1.37
2023-05-16T17:26:35.586Z,1.00
2023-05-16T17:29:04.359Z,1.17
2023-05-16T17:31:32.351Z,1.20
2023-05-16T17:34:00.173Z,1.30
2023-05-16T17:36:29.428Z,1.00
2023-05-16T17:38:58.629Z,1.00
2023-05-16T17:41:26.588Z,0.90
2023-05-16T17:43:54.487Z,1.20
2023-05-16T17:46:22.379Z,0.80
2023-05-16T17:48:50.217Z,1.10
2023-05-16T17:51:18.068Z,1.50
2023-05-16T17:53:47.339Z,1.10
2023-05-16T17:56:15.276Z,1.50
2023-05-16T17:58:43.279Z,0.93
2023-05-16T18:01:11.235Z,1.00
2023-05-16T18:03:39.523Z,1.47
2023-05-16T18:06:07.989Z,1.10
2023-05-16T18:08:36.925Z,1.43
2023-05-16T18:11:06.419Z,1.70
2023-05-16T18:13:34.433Z,1.77
2023-05-16T18:16:03.784Z,1.13
2023-05-16T18:18:31.834Z,1.70
2023-05-16T18:20:59.780Z,1.30
2023-05-16T18:23:27.566Z,1.63
2023-05-16T18:25:55.409Z,1.40
2023-05-16T18:28:24.661Z,1.37
2023-05-16T18:30:55.456Z,1.10
2023-05-16T18:33:23.384Z,1.40
2023-05-16T18:35:51.246Z,1.17
2023-05-16T18:38:31.270Z,1.20
2023-05-16T18:41:00.801Z,1.33
2023-05-16T18:43:30.213Z,1.63
2023-05-16T18:45:58.813Z,1.70
2023-05-16T18:48:26.868Z,1.30
2023-05-16T18:50:54.924Z,1.60
2023-05-16T18:53:22.795Z,1.60
2023-05-16T18:55:51.207Z,1.73
2023-05-16T18:58:19.090Z,1.73
2023-05-16T19:00:48.386Z,2.17
2023-05-16T19:03:17.325Z,1.83
2023-05-16T19:05:45.715Z,2.47
2023-05-16T19:08:13.781Z,2.00
2023-05-16T19:10:41.796Z,2.17
2023-05-16T19:13:09.726Z,1.90
2023-05-16T19:15:38.896Z,1.90
2023-05-16T19:18:08.375Z,1.90
2023-05-16T19:20:36.683Z,2.50
2023-05-16T19:23:04.675Z,1.83
2023-05-16T19:25:32.570Z,2.13
2023-05-16T19:28:00.561Z,2.53
2023-05-16T19:30:29.263Z,2.17
2023-05-16T19:32:57.370Z,2.07
2023-05-16T19:35:27.104Z,1.83
2023-05-16T19:37:55.190Z,1.80
2023-05-16T19:40:23.953Z,1.90
2023-05-16T19:42:51.774Z,1.97
2023-05-16T19:45:19.587Z,1.97
2023-05-16T19:47:47.567Z,2.37
2023-05-16T19:50:15.441Z,2.27
2023-05-16T19:52:44.780Z,1.87
2023-05-16T19:55:12.853Z,2.50
2023-05-16T19:57:40.803Z,2.07
2023-05-16T20:00:10.486Z,1.90
2023-05-16T20:02:38.577Z,2.03
2023-05-16T20:05:07.521Z,2.40
2023-05-16T20:07:35.415Z,2.43
2023-05-16T20:10:05.945Z,2.27
2023-05-16T20:12:34.015Z,2.30
2023-05-16T20:15:02.109Z,2.30
2023-05-16T20:17:30.153Z,2.77
2023-05-16T20:19:58.372Z,2.57
2023-05-16T20:22:26.323Z,2.20
2023-05-16T20:24:56.911Z,2.63
2023-05-16T20:27:26.336Z,2.37
2023-05-16T20:29:54.381Z,2.43
2023-05-16T20:32:22.886Z,2.03
2023-05-16T20:34:50.772Z,2.53
2023-05-16T20:37:18.653Z,2.90
2023-05-16T20:39:46.521Z,2.40
2023-05-16T20:42:14.319Z,2.27
2023-05-16T20:44:44.144Z,2.43
2023-05-16T20:47:12.337Z,3.07
2023-05-16T20:49:40.305Z,3.03
2023-05-16T20:52:08.499Z,2.57
2023-05-16T20:54:36.454Z,2.93
2023-05-16T20:57:04.876Z,3.00
2023-05-16T20:59:33.864Z,3.13
2023-05-16T21:02:03.064Z,2.83
2023-05-16T21:04:31.198Z,2.87
2023-05-16T21:06:59.104Z,2.80
2023-05-16T21:09:27.076Z,2.80
2023-05-16T21:11:55.445Z,2.40
2023-05-16T21:14:23.266Z,3.50
2023-05-16T21:16:52.324Z,2.80
2023-05-16T21:19:21.724Z,3.13
2023-05-16T21:21:49.761Z,2.77
2023-05-16T21:24:17.557Z,2.97
2023-05-16T21:26:45.453Z,2.87
2023-05-16T21:29:13.272Z,2.67
2023-05-16T21:31:41.130Z,2.60
2023-05-16T21:34:09.722Z,2.70
2023-05-16T21:36:39.307Z,3.13
2023-05-16T21:39:07.312Z,3.20
2023-05-16T21:41:36.085Z,2.70
2023-05-16T21:44:03.986Z,3.10
2023-05-16T21:46:31.885Z,2.70
2023-05-16T21:48:59.783Z,3.13
2023-05-16T21:51:27.929Z,3.77
2023-05-16T21:53:57.311Z,3.30
2023-05-16T21:56:27.646Z,3.37
2023-05-16T21:58:55.482Z,3.03
2023-05-16T22:01:25.264Z,3.07
2023-05-16T22:03:53.748Z,2.67
2023-05-16T22:06:21.700Z,3.20
2023-05-16T22:08:49.727Z,3.23
2023-05-16T22:11:19.097Z,3.10
2023-05-16T22:13:46.966Z,2.80
2023-05-16T22:16:15.304Z,2.70
2023-05-16T22:18:43.429Z,3.03
2023-05-16T22:21:11.404Z,2.80
2023-05-16T22:23:39.538Z,3.03
2023-05-16T22:26:08.376Z,2.77
2023-05-16T22:28:37.665Z,2.27
2023-05-16T22:31:05.578Z,2.93
2023-05-16T22:33:33.472Z,3.37
2023-05-16T22:36:03.079Z,2.80
2023-05-16T22:38:31.670Z,2.90
2023-05-16T22:41:01.543Z,3.10
2023-05-16T22:43:29.571Z,2.80
2023-05-16T22:46:01.452Z,3.27
2023-05-16T22:48:31.059Z,2.90
2023-05-16T22:50:59.591Z,2.40
2023-05-16T22:53:27.702Z,2.27
2023-05-16T22:55:55.703Z,2.97
2023-05-16T22:58:23.557Z,3.13
2023-05-16T23:00:51.533Z,2.70
2023-05-16T23:03:20.903Z,2.90
2023-05-16T23:05:48.748Z,2.90
2023-05-16T23:08:16.552Z,2.63
2023-05-16T23:10:44.364Z,2.70
2023-05-16T23:13:12.425Z,2.33
2023-05-16T23:15:40.283Z,3.27
2023-05-16T23:18:08.304Z,2.87
2023-05-16T23:20:37.929Z,2.77
2023-05-16T23:23:05.791Z,3.10
2023-05-16T23:25:33.990Z,3.10
2023-05-16T23:28:01.836Z,3.13
2023-05-16T23:30:29.802Z,3.07
2023-05-16T23:32:57.684Z,2.53
2023-05-16T23:35:25.984Z,2.40
2023-05-16T23:37:55.918Z,2.90
2023-05-16T23:40:23.754Z,2.90
2023-05-16T23:42:51.639Z,2.70
2023-05-16T23:45:19.534Z,2.37
2023-05-16T23:47:48.623Z,3.00
2023-05-16T23:50:17.455Z,2.57
2023-05-16T23:52:45.562Z,2.40
2023-05-16T23:55:15.904Z,2.67
2023-05-16T23:57:43.887Z,2.33
